CXA8694 WIII-ZSNJ
Flight info
| Callsign | CXA8694 |
|---|---|
| Flight time | 5h 56m |
| Altitude | 32000 |
| Route | DOLTA A585 PLB G579 SJ B469 VMR M771 DUDIS/K0867F320 M771 DOSUT/N0465F330 DCT DUMOL/N0465F340 J103 BEKOL/K0861S1040 A461 SHL/K0856S1070 G471 EGEDA/K0859S1040 G471 PLT/K0846S1070 A599 KAKIS KAK71F |
| Aircraft | B738/M-SDE2E3FGHIRWXY/LB1 |
Departure
| Time | 2026-04-22 18:36 |
|---|---|
| Airport | Soekarno-Hatta International Airport (WIII) |
Arrival
| Time | 2026-04-23 00:32 |
|---|---|
| Airport | Nanjing Lukou International Airport (ZSNJ) |
| Time | Latitude | Longitude | Altitude | Speed | Heading |
|---|---|---|---|---|---|
| 2026-04-22 17:45 | -6.11874 | 106.65982 | 37 ft | 0 kts | 248° |
| 2026-04-22 18:17 | -6.11874 | 106.65983 | 36 ft | 2 kts | 248° |
| 2026-04-22 18:17 | -6.11863 | 106.66005 | 35 ft | 4 kts | 239° |
| 2026-04-22 18:17 | -6.11848 | 106.66028 | 34 ft | 4 kts | 231° |
| 2026-04-22 18:17 | -6.11830 | 106.66048 | 36 ft | 4 kts | 225° |
| 2026-04-22 18:18 | -6.11810 | 106.66067 | 36 ft | 4 kts | 225° |
| 2026-04-22 18:18 | -6.11793 | 106.66087 | 36 ft | 3 kts | 245° |
| 2026-04-22 18:18 | -6.11792 | 106.66090 | 36 ft | 0 kts | 248° |
| 2026-04-22 18:21 | -6.11795 | 106.66082 | 37 ft | 3 kts | 248° |
| 2026-04-22 18:21 | -6.11801 | 106.66053 | 35 ft | 6 kts | 272° |
| 2026-04-22 18:21 | -6.11777 | 106.66016 | 37 ft | 7 kts | 327° |
| 2026-04-22 18:21 | -6.11725 | 106.65993 | 37 ft | 10 kts | 337° |
| 2026-04-22 18:22 | -6.11656 | 106.65965 | 36 ft | 12 kts | 338° |
| 2026-04-22 18:22 | -6.11576 | 106.65930 | 37 ft | 13 kts | 334° |
| 2026-04-22 18:22 | -6.11495 | 106.65915 | 35 ft | 10 kts | 28° |
| 2026-04-22 18:22 | -6.11461 | 106.65976 | 37 ft | 10 kts | 69° |
| 2026-04-22 18:23 | -6.11435 | 106.66042 | 35 ft | 11 kts | 68° |
| 2026-04-22 18:23 | -6.11404 | 106.66120 | 38 ft | 14 kts | 68° |
| 2026-04-22 18:23 | -6.11365 | 106.66218 | 35 ft | 13 kts | 66° |
| 2026-04-22 18:24 | -6.11402 | 106.66306 | 37 ft | 8 kts | 183° |
| 2026-04-22 18:24 | -6.11443 | 106.66268 | 37 ft | 9 kts | 249° |
| 2026-04-22 18:24 | -6.11499 | 106.66119 | 37 ft | 14 kts | 249° |
| 2026-04-22 18:25 | -6.11538 | 106.66017 | 37 ft | 17 kts | 249° |
| 2026-04-22 18:25 | -6.11587 | 106.65904 | 37 ft | 18 kts | 249° |
| 2026-04-22 18:25 | -6.11630 | 106.65796 | 35 ft | 16 kts | 248° |
| 2026-04-22 18:26 | -6.11710 | 106.65598 | 37 ft | 15 kts | 248° |
| 2026-04-22 18:26 | -6.11745 | 106.65504 | 37 ft | 14 kts | 249° |
| 2026-04-22 18:26 | -6.11780 | 106.65415 | 37 ft | 13 kts | 249° |
| 2026-04-22 18:26 | -6.11815 | 106.65330 | 35 ft | 13 kts | 248° |
| 2026-04-22 18:27 | -6.11848 | 106.65247 | 37 ft | 13 kts | 248° |
| 2026-04-22 18:27 | -6.11880 | 106.65167 | 37 ft | 12 kts | 248° |
| 2026-04-22 18:27 | -6.11911 | 106.65088 | 38 ft | 12 kts | 248° |
| 2026-04-22 18:27 | -6.11942 | 106.65011 | 38 ft | 12 kts | 248° |
| 2026-04-22 18:28 | -6.11971 | 106.64936 | 37 ft | 11 kts | 248° |
| 2026-04-22 18:28 | -6.12001 | 106.64864 | 37 ft | 11 kts | 248° |
| 2026-04-22 18:28 | -6.12029 | 106.64793 | 37 ft | 11 kts | 248° |
| 2026-04-22 18:28 | -6.12056 | 106.64725 | 37 ft | 10 kts | 248° |
| 2026-04-22 18:29 | -6.12084 | 106.64652 | 37 ft | 12 kts | 248° |
| 2026-04-22 18:29 | -6.12121 | 106.64562 | 37 ft | 15 kts | 248° |
| 2026-04-22 18:29 | -6.12163 | 106.64457 | 36 ft | 17 kts | 248° |
| 2026-04-22 18:29 | -6.12209 | 106.64342 | 38 ft | 18 kts | 248° |
| 2026-04-22 18:30 | -6.12258 | 106.64218 | 38 ft | 20 kts | 248° |
| 2026-04-22 18:30 | -6.12355 | 106.63975 | 38 ft | 7 kts | 253° |
| 2026-04-22 18:30 | -6.12337 | 106.63954 | 37 ft | 5 kts | 333° |
| 2026-04-22 18:31 | -6.12300 | 106.63935 | 38 ft | 9 kts | 333° |
| 2026-04-22 18:31 | -6.12239 | 106.63906 | 39 ft | 10 kts | 334° |
| 2026-04-22 18:31 | -6.12214 | 106.63895 | 40 ft | 0 kts | 340° |
| 2026-04-22 18:32 | -6.12212 | 106.63894 | 40 ft | 1 kts | 340° |
| 2026-04-22 18:32 | -6.12188 | 106.63890 | 40 ft | 6 kts | 3° |
| 2026-04-22 18:33 | -6.12140 | 106.63905 | 40 ft | 9 kts | 16° |
| 2026-04-22 18:33 | -6.12082 | 106.63929 | 40 ft | 7 kts | 53° |
| 2026-04-22 18:33 | -6.12061 | 106.63980 | 39 ft | 7 kts | 68° |
| 2026-04-22 18:33 | -6.12060 | 106.63984 | 39 ft | 0 kts | 68° |
| 2026-04-22 18:34 | -6.12059 | 106.63987 | 39 ft | 0 kts | 69° |
| 2026-04-22 18:34 | -6.12058 | 106.63990 | 38 ft | 0 kts | 69° |
| 2026-04-22 18:35 | -6.12041 | 106.64033 | 38 ft | 17 kts | 69° |
| 2026-04-22 18:35 | -6.11967 | 106.64219 | 38 ft | 55 kts | 68° |
| 2026-04-22 18:35 | -6.11738 | 106.64795 | 42 ft | 120 kts | 68° |
| 2026-04-22 18:35 | -6.11360 | 106.65755 | 49 ft | 173 kts | 70° |
| 2026-04-22 18:36 | -6.10907 | 106.66928 | 625 ft | 182 kts | 69° |
| 2026-04-22 18:36 | -6.10440 | 106.68104 | 1419 ft | 179 kts | 63° |
| 2026-04-22 18:36 | -6.09531 | 106.68980 | 1984 ft | 192 kts | 28° |
| 2026-04-22 18:36 | -6.08270 | 106.69652 | 2195 ft | 216 kts | 29° |
| 2026-04-22 18:37 | -6.06891 | 106.70424 | 2410 ft | 236 kts | 30° |
| 2026-04-22 18:37 | -6.05425 | 106.71275 | 2709 ft | 255 kts | 30° |
| 2026-04-22 18:37 | -6.04392 | 106.71890 | 3005 ft | 263 kts | 31° |
| 2026-04-22 18:37 | -6.02817 | 106.72842 | 3699 ft | 265 kts | 31° |
| 2026-04-22 18:38 | -6.01233 | 106.73807 | 4417 ft | 268 kts | 31° |
| 2026-04-22 18:38 | -5.98946 | 106.74800 | 4914 ft | 271 kts | 5° |
| 2026-04-22 18:38 | -5.97703 | 106.74749 | 4998 ft | 273 kts | 347° |
| 2026-04-22 18:39 | -5.94861 | 106.72394 | 5005 ft | 274 kts | 297° |
| 2026-04-22 18:39 | -5.94047 | 106.70655 | 4998 ft | 275 kts | 295° |
| 2026-04-22 18:39 | -5.93263 | 106.68895 | 5168 ft | 277 kts | 295° |
| 2026-04-22 18:39 | -5.92465 | 106.67126 | 5838 ft | 279 kts | 295° |
| 2026-04-22 18:40 | -5.91655 | 106.65359 | 6545 ft | 279 kts | 295° |
| 2026-04-22 18:40 | -5.90834 | 106.63583 | 7180 ft | 282 kts | 295° |
| 2026-04-22 18:40 | -5.90002 | 106.61788 | 7807 ft | 284 kts | 295° |
| 2026-04-22 18:40 | -5.89161 | 106.59979 | 8433 ft | 287 kts | 295° |
| 2026-04-22 18:41 | -5.88310 | 106.58155 | 9058 ft | 290 kts | 295° |
| 2026-04-22 18:41 | -5.87458 | 106.56327 | 9689 ft | 293 kts | 295° |
| 2026-04-22 18:41 | -5.86593 | 106.54472 | 10235 ft | 297 kts | 295° |
| 2026-04-22 18:41 | -5.85687 | 106.52530 | 10403 ft | 316 kts | 295° |
| 2026-04-22 18:42 | -5.84728 | 106.50472 | 10542 ft | 335 kts | 295° |
| 2026-04-22 18:42 | -5.83715 | 106.48301 | 10683 ft | 352 kts | 295° |
| 2026-04-22 18:42 | -5.82652 | 106.46020 | 10884 ft | 365 kts | 295° |
| 2026-04-22 18:42 | -5.81569 | 106.43692 | 11331 ft | 370 kts | 295° |
| 2026-04-22 18:43 | -5.80480 | 106.41345 | 11875 ft | 371 kts | 295° |
| 2026-04-22 18:43 | -5.79390 | 106.38995 | 12402 ft | 373 kts | 295° |
| 2026-04-22 18:43 | -5.78288 | 106.36620 | 12890 ft | 376 kts | 295° |
| 2026-04-22 18:43 | -5.77178 | 106.34228 | 13371 ft | 379 kts | 295° |
| 2026-04-22 18:44 | -5.76059 | 106.31818 | 13833 ft | 382 kts | 295° |
| 2026-04-22 18:44 | -5.74931 | 106.29392 | 14259 ft | 384 kts | 296° |
| 2026-04-22 18:44 | -5.73453 | 106.27163 | 14662 ft | 387 kts | 314° |
| 2026-04-22 18:44 | -5.71317 | 106.25522 | 15102 ft | 388 kts | 330° |
| 2026-04-22 18:45 | -5.68963 | 106.24188 | 15543 ft | 390 kts | 331° |
| 2026-04-22 18:45 | -5.66576 | 106.22877 | 15936 ft | 393 kts | 331° |
| 2026-04-22 18:45 | -5.64194 | 106.21573 | 16324 ft | 396 kts | 331° |
| 2026-04-22 18:45 | -5.61779 | 106.20238 | 17518 ft | 397 kts | 330° |
| 2026-04-22 18:46 | -5.59332 | 106.18873 | 17249 ft | 399 kts | 331° |
| 2026-04-22 18:46 | -5.56931 | 106.17525 | 17572 ft | 403 kts | 330° |
| 2026-04-22 18:46 | -5.54475 | 106.16140 | 17931 ft | 406 kts | 330° |
| 2026-04-22 18:46 | -5.52005 | 106.14746 | 18292 ft | 408 kts | 330° |
| 2026-04-22 18:47 | -5.49528 | 106.13346 | 18644 ft | 410 kts | 330° |
| 2026-04-22 18:47 | -5.47042 | 106.11942 | 18980 ft | 411 kts | 330° |
| 2026-04-22 18:47 | -5.44537 | 106.10528 | 19303 ft | 414 kts | 330° |
| 2026-04-22 18:47 | -5.42025 | 106.09109 | 19617 ft | 416 kts | 330° |
| 2026-04-22 18:48 | -5.39495 | 106.07682 | 19931 ft | 418 kts | 330° |
| 2026-04-22 18:48 | -5.36956 | 106.06250 | 20221 ft | 420 kts | 330° |
| 2026-04-22 18:48 | -5.34397 | 106.04805 | 20536 ft | 422 kts | 330° |
| 2026-04-22 18:48 | -5.31831 | 106.03357 | 20844 ft | 424 kts | 330° |
| 2026-04-22 18:49 | -5.29255 | 106.01903 | 21140 ft | 426 kts | 330° |
| 2026-04-22 18:49 | -5.26665 | 106.00440 | 21419 ft | 428 kts | 330° |
| 2026-04-22 18:49 | -5.24061 | 105.98971 | 21687 ft | 431 kts | 330° |
| 2026-04-22 18:49 | -5.21443 | 105.97492 | 21970 ft | 433 kts | 330° |
| 2026-04-22 18:50 | -5.18811 | 105.96007 | 22243 ft | 434 kts | 330° |
| 2026-04-22 18:50 | -5.16175 | 105.94519 | 22501 ft | 437 kts | 330° |
| 2026-04-22 18:50 | -5.13521 | 105.93022 | 22757 ft | 439 kts | 330° |
| 2026-04-22 18:50 | -5.10853 | 105.91513 | 23008 ft | 441 kts | 330° |
| 2026-04-22 18:51 | -5.08175 | 105.89989 | 23263 ft | 443 kts | 330° |
| 2026-04-22 18:51 | -5.05495 | 105.88461 | 23503 ft | 444 kts | 330° |
| 2026-04-22 18:51 | -5.02801 | 105.86923 | 23712 ft | 446 kts | 330° |
| 2026-04-22 18:51 | -5.00140 | 105.85404 | 23926 ft | 447 kts | 330° |
| 2026-04-22 18:52 | -4.97435 | 105.83860 | 24138 ft | 448 kts | 330° |
| 2026-04-22 18:52 | -4.94721 | 105.82313 | 24354 ft | 449 kts | 330° |
| 2026-04-22 18:52 | -4.91997 | 105.80759 | 24552 ft | 451 kts | 330° |
| 2026-04-22 18:52 | -4.89265 | 105.79202 | 24752 ft | 452 kts | 330° |
| 2026-04-22 18:53 | -4.86528 | 105.77643 | 24952 ft | 453 kts | 330° |
| 2026-04-22 18:53 | -4.83782 | 105.76078 | 25155 ft | 454 kts | 330° |
| 2026-04-22 18:53 | -4.81026 | 105.74508 | 25358 ft | 456 kts | 330° |
| 2026-04-22 18:53 | -4.78269 | 105.72938 | 25545 ft | 457 kts | 330° |
| 2026-04-22 18:54 | -4.75495 | 105.71358 | 25729 ft | 458 kts | 330° |
| 2026-04-22 18:54 | -4.72722 | 105.69778 | 25913 ft | 459 kts | 330° |
| 2026-04-22 18:54 | -4.69942 | 105.68195 | 26094 ft | 461 kts | 330° |
| 2026-04-22 18:54 | -4.67145 | 105.66602 | 26282 ft | 462 kts | 330° |
| 2026-04-22 18:55 | -4.64351 | 105.65011 | 26454 ft | 463 kts | 330° |
| 2026-04-22 18:55 | -4.61582 | 105.63434 | 26637 ft | 464 kts | 330° |
| 2026-04-22 18:55 | -4.58777 | 105.61837 | 26804 ft | 465 kts | 330° |
| 2026-04-22 18:55 | -4.55958 | 105.60233 | 26978 ft | 466 kts | 330° |
| 2026-04-22 18:56 | -4.53134 | 105.58625 | 27131 ft | 467 kts | 330° |
| 2026-04-22 18:56 | -4.50305 | 105.57015 | 27298 ft | 469 kts | 330° |
| 2026-04-22 18:56 | -4.47468 | 105.55401 | 27466 ft | 469 kts | 330° |
| 2026-04-22 18:56 | -4.44617 | 105.53778 | 27629 ft | 470 kts | 330° |
| 2026-04-22 18:57 | -4.41777 | 105.52162 | 27783 ft | 471 kts | 330° |
| 2026-04-22 18:57 | -4.38916 | 105.50534 | 27943 ft | 472 kts | 330° |
| 2026-04-22 18:57 | -4.36058 | 105.48909 | 28080 ft | 473 kts | 330° |
| 2026-04-22 18:57 | -4.33190 | 105.47277 | 28225 ft | 474 kts | 330° |
| 2026-04-22 18:58 | -4.30321 | 105.45645 | 28389 ft | 475 kts | 330° |
| 2026-04-22 18:58 | -4.27446 | 105.44010 | 28580 ft | 475 kts | 330° |
| 2026-04-22 18:58 | -4.24579 | 105.42379 | 28767 ft | 475 kts | 330° |
| 2026-04-22 18:58 | -4.21709 | 105.40747 | 28978 ft | 474 kts | 330° |
| 2026-04-22 18:59 | -4.18842 | 105.39117 | 29202 ft | 473 kts | 330° |
| 2026-04-22 18:59 | -4.15979 | 105.37489 | 29405 ft | 473 kts | 330° |
| 2026-04-22 18:59 | -4.13124 | 105.35866 | 29626 ft | 472 kts | 330° |
| 2026-04-22 18:59 | -4.10276 | 105.34246 | 29858 ft | 471 kts | 330° |
| 2026-04-22 19:00 | -4.07424 | 105.32625 | 30056 ft | 470 kts | 330° |
| 2026-04-22 19:00 | -4.04579 | 105.31008 | 30222 ft | 470 kts | 330° |
| 2026-04-22 19:00 | -4.01740 | 105.29394 | 30390 ft | 470 kts | 330° |
| 2026-04-22 19:00 | -3.98887 | 105.27772 | 30565 ft | 470 kts | 330° |
| 2026-04-22 19:01 | -3.96085 | 105.26180 | 30752 ft | 469 kts | 330° |
| 2026-04-22 19:01 | -3.93249 | 105.24568 | 30946 ft | 468 kts | 330° |
| 2026-04-22 19:01 | -3.90420 | 105.22963 | 31132 ft | 468 kts | 330° |
| 2026-04-22 19:01 | -3.87585 | 105.21364 | 31295 ft | 467 kts | 331° |
| 2026-04-22 19:02 | -3.84745 | 105.19767 | 31486 ft | 467 kts | 331° |
| 2026-04-22 19:02 | -3.81914 | 105.18176 | 31676 ft | 467 kts | 331° |
| 2026-04-22 19:02 | -3.79090 | 105.16588 | 31842 ft | 464 kts | 331° |
| 2026-04-22 19:02 | -3.76272 | 105.15004 | 31853 ft | 466 kts | 331° |
| 2026-04-22 19:03 | -3.70612 | 105.11819 | 31868 ft | 467 kts | 330° |
| 2026-04-22 19:03 | -3.64946 | 105.08630 | 31872 ft | 467 kts | 330° |
| 2026-04-22 19:04 | -3.59286 | 105.05444 | 31874 ft | 467 kts | 330° |
| 2026-04-22 19:04 | -3.53622 | 105.02257 | 31871 ft | 467 kts | 330° |
| 2026-04-22 19:05 | -3.47993 | 104.99090 | 31871 ft | 467 kts | 330° |
| 2026-04-22 19:05 | -3.42325 | 104.95901 | 31872 ft | 467 kts | 330° |
| 2026-04-22 19:06 | -3.36652 | 104.92710 | 31871 ft | 467 kts | 330° |
| 2026-04-22 19:07 | -3.28145 | 104.87925 | 31873 ft | 468 kts | 330° |
| 2026-04-22 19:07 | -3.22468 | 104.84733 | 31877 ft | 468 kts | 331° |
| 2026-04-22 19:08 | -3.16790 | 104.81541 | 31881 ft | 468 kts | 330° |
| 2026-04-22 19:08 | -3.11109 | 104.78347 | 31881 ft | 469 kts | 330° |
| 2026-04-22 19:09 | -3.05423 | 104.75150 | 31883 ft | 469 kts | 330° |
| 2026-04-22 19:09 | -3.00688 | 104.72489 | 31884 ft | 469 kts | 330° |
| 2026-04-22 19:10 | -2.94075 | 104.68772 | 31883 ft | 469 kts | 330° |
| 2026-04-22 19:10 | -2.88309 | 104.65711 | 31878 ft | 469 kts | 338° |
| 2026-04-22 19:11 | -2.82021 | 104.64046 | 31894 ft | 468 kts | 349° |
| 2026-04-22 19:11 | -2.75601 | 104.62904 | 31883 ft | 468 kts | 350° |
| 2026-04-22 19:12 | -2.69184 | 104.61752 | 31879 ft | 468 kts | 349° |
| 2026-04-22 19:12 | -2.62777 | 104.60562 | 31878 ft | 468 kts | 349° |
| 2026-04-22 19:13 | -2.56374 | 104.59354 | 31874 ft | 468 kts | 349° |
| 2026-04-22 19:13 | -2.50020 | 104.58152 | 31875 ft | 468 kts | 349° |
| 2026-04-22 19:14 | -2.43623 | 104.56943 | 31869 ft | 468 kts | 349° |
| 2026-04-22 19:14 | -2.37231 | 104.55737 | 31866 ft | 468 kts | 349° |
| 2026-04-22 19:15 | -2.31871 | 104.54725 | 31868 ft | 468 kts | 349° |
| 2026-04-22 19:15 | -2.24410 | 104.53318 | 31869 ft | 470 kts | 349° |
| 2026-04-22 19:16 | -2.17964 | 104.52102 | 31869 ft | 472 kts | 349° |
| 2026-04-22 19:16 | -2.11496 | 104.50881 | 31869 ft | 475 kts | 349° |
| 2026-04-22 19:17 | -2.04987 | 104.49653 | 31864 ft | 477 kts | 349° |
| 2026-04-22 19:17 | -1.98488 | 104.48428 | 31864 ft | 479 kts | 349° |
| 2026-04-22 19:18 | -1.91883 | 104.47182 | 31862 ft | 480 kts | 349° |
| 2026-04-22 19:18 | -1.85351 | 104.45950 | 31858 ft | 481 kts | 349° |
| 2026-04-22 19:19 | -1.78765 | 104.44708 | 31855 ft | 481 kts | 349° |
| 2026-04-22 19:19 | -1.72195 | 104.43469 | 31854 ft | 480 kts | 349° |
| 2026-04-22 19:20 | -1.65630 | 104.42231 | 31853 ft | 479 kts | 349° |
| 2026-04-22 19:20 | -1.59080 | 104.40996 | 31854 ft | 478 kts | 349° |
| 2026-04-22 19:21 | -1.52552 | 104.39765 | 31851 ft | 477 kts | 349° |
| 2026-04-22 19:21 | -1.46031 | 104.38536 | 31852 ft | 476 kts | 349° |
| 2026-04-22 19:22 | -1.39516 | 104.37308 | 31852 ft | 476 kts | 349° |
| 2026-04-22 19:22 | -1.33020 | 104.36084 | 31852 ft | 475 kts | 349° |
| 2026-04-22 19:23 | -1.26517 | 104.34858 | 31848 ft | 475 kts | 349° |
| 2026-04-22 19:23 | -1.20017 | 104.33633 | 31850 ft | 475 kts | 349° |
| 2026-04-22 19:24 | -1.13515 | 104.32407 | 31850 ft | 476 kts | 349° |
| 2026-04-22 19:24 | -1.07008 | 104.31181 | 31851 ft | 476 kts | 350° |
| 2026-04-22 19:25 | -1.00491 | 104.29953 | 31848 ft | 477 kts | 350° |
| 2026-04-22 19:25 | -0.94012 | 104.28732 | 31844 ft | 477 kts | 350° |
| 2026-04-22 19:26 | -0.87474 | 104.27500 | 31843 ft | 478 kts | 350° |
| 2026-04-22 19:26 | -0.80935 | 104.26268 | 31842 ft | 478 kts | 350° |
| 2026-04-22 19:27 | -0.74401 | 104.25036 | 31846 ft | 478 kts | 350° |
| 2026-04-22 19:27 | -0.67860 | 104.23804 | 31844 ft | 478 kts | 350° |
| 2026-04-22 19:28 | -0.61319 | 104.22571 | 31841 ft | 478 kts | 350° |
| 2026-04-22 19:28 | -0.54776 | 104.21332 | 31841 ft | 478 kts | 349° |
| 2026-04-22 19:29 | -0.48251 | 104.20040 | 31839 ft | 478 kts | 349° |
| 2026-04-22 19:29 | -0.42831 | 104.18953 | 31838 ft | 477 kts | 349° |
| 2026-04-22 19:30 | -0.37423 | 104.17871 | 31836 ft | 477 kts | 349° |
| 2026-04-22 19:30 | -0.28752 | 104.16145 | 31835 ft | 477 kts | 349° |
| 2026-04-22 19:31 | -0.23301 | 104.15061 | 31837 ft | 477 kts | 349° |
| 2026-04-22 19:31 | -0.16797 | 104.13769 | 31835 ft | 476 kts | 349° |
| 2026-04-22 19:32 | -0.10334 | 104.12484 | 31837 ft | 476 kts | 349° |
| 2026-04-22 19:32 | -0.03828 | 104.11190 | 31835 ft | 476 kts | 349° |
| 2026-04-22 19:33 | 0.02681 | 104.09896 | 31839 ft | 477 kts | 349° |
| 2026-04-22 19:33 | 0.09180 | 104.08604 | 31839 ft | 477 kts | 349° |
| 2026-04-22 19:34 | 0.15694 | 104.07309 | 31838 ft | 477 kts | 349° |
| 2026-04-22 19:34 | 0.22206 | 104.06013 | 31839 ft | 477 kts | 349° |
| 2026-04-22 19:35 | 0.28716 | 104.04720 | 31836 ft | 477 kts | 349° |
| 2026-04-22 19:35 | 0.35234 | 104.03439 | 31840 ft | 477 kts | 349° |
| 2026-04-22 19:36 | 0.41745 | 104.02162 | 31838 ft | 477 kts | 349° |
| 2026-04-22 19:36 | 0.48217 | 104.00890 | 31840 ft | 476 kts | 349° |
| 2026-04-22 19:37 | 0.54717 | 103.99612 | 31836 ft | 476 kts | 349° |
| 2026-04-22 19:37 | 0.61215 | 103.98323 | 31838 ft | 476 kts | 349° |
| 2026-04-22 19:38 | 0.67712 | 103.97019 | 31837 ft | 476 kts | 349° |
| 2026-04-22 19:38 | 0.74197 | 103.95717 | 31839 ft | 475 kts | 349° |
| 2026-04-22 19:39 | 0.80680 | 103.94339 | 31838 ft | 475 kts | 348° |
| 2026-04-22 19:39 | 0.87148 | 103.92945 | 31842 ft | 476 kts | 348° |
| 2026-04-22 19:40 | 0.93617 | 103.91562 | 31840 ft | 476 kts | 348° |
| 2026-04-22 19:40 | 1.00096 | 103.90183 | 31841 ft | 476 kts | 348° |
| 2026-04-22 19:41 | 1.06580 | 103.88822 | 31841 ft | 476 kts | 348° |
| 2026-04-22 19:41 | 1.13024 | 103.87472 | 31849 ft | 476 kts | 348° |
| 2026-04-22 19:42 | 1.19505 | 103.86124 | 31853 ft | 476 kts | 351° |
| 2026-04-22 19:42 | 1.26078 | 103.86113 | 31859 ft | 474 kts | 10° |
| 2026-04-22 19:42 | 1.29263 | 103.86935 | 31845 ft | 472 kts | 24° |
| 2026-04-22 19:43 | 1.34835 | 103.90325 | 31845 ft | 471 kts | 28° |
| 2026-04-22 19:43 | 1.40943 | 103.92715 | 31887 ft | 476 kts | 12° |
| 2026-04-22 19:44 | 1.47562 | 103.93117 | 32119 ft | 479 kts | 356° |
| 2026-04-22 19:44 | 1.50877 | 103.92850 | 32362 ft | 477 kts | 356° |
| 2026-04-22 19:44 | 1.54181 | 103.92595 | 32570 ft | 476 kts | 356° |
| 2026-04-22 19:45 | 1.57490 | 103.92378 | 32726 ft | 476 kts | 357° |
| 2026-04-22 19:45 | 1.60798 | 103.92180 | 32822 ft | 476 kts | 357° |
| 2026-04-22 19:45 | 1.67423 | 103.91747 | 32838 ft | 478 kts | 356° |
| 2026-04-22 19:46 | 1.74022 | 103.91304 | 32837 ft | 478 kts | 356° |
| 2026-04-22 19:46 | 1.80656 | 103.91232 | 32842 ft | 476 kts | 3° |
| 2026-04-22 19:47 | 1.87282 | 103.91549 | 32842 ft | 476 kts | 3° |
| 2026-04-22 19:47 | 1.93903 | 103.91644 | 32837 ft | 476 kts | 356° |
| 2026-04-22 19:48 | 2.00489 | 103.91015 | 32838 ft | 476 kts | 354° |
| 2026-04-22 19:48 | 2.07081 | 103.90288 | 32839 ft | 476 kts | 354° |
| 2026-04-22 19:49 | 2.13662 | 103.89623 | 32836 ft | 475 kts | 355° |
| 2026-04-22 19:49 | 2.20248 | 103.88989 | 32840 ft | 475 kts | 355° |
| 2026-04-22 19:50 | 2.26835 | 103.88356 | 32829 ft | 476 kts | 355° |
| 2026-04-22 19:50 | 2.33421 | 103.87722 | 32831 ft | 476 kts | 355° |
| 2026-04-22 19:51 | 2.36726 | 103.87740 | 32821 ft | 475 kts | 8° |
| 2026-04-22 19:51 | 2.39943 | 103.88412 | 32841 ft | 473 kts | 18° |
| 2026-04-22 19:51 | 2.42988 | 103.89654 | 32828 ft | 472 kts | 30° |
| 2026-04-22 19:51 | 2.45764 | 103.91331 | 32842 ft | 471 kts | 33° |
| 2026-04-22 19:52 | 2.51290 | 103.94870 | 32834 ft | 472 kts | 33° |
| 2026-04-22 19:52 | 2.56843 | 103.98404 | 32832 ft | 473 kts | 33° |
| 2026-04-22 19:53 | 2.62434 | 104.01901 | 32829 ft | 474 kts | 32° |
| 2026-04-22 19:53 | 2.68037 | 104.05384 | 32832 ft | 475 kts | 32° |
| 2026-04-22 19:54 | 2.73655 | 104.08875 | 32833 ft | 475 kts | 32° |
| 2026-04-22 19:54 | 2.79273 | 104.12371 | 32833 ft | 476 kts | 33° |
| 2026-04-22 19:55 | 2.84897 | 104.15871 | 32833 ft | 476 kts | 33° |
| 2026-04-22 19:55 | 2.90496 | 104.19356 | 32827 ft | 476 kts | 33° |
| 2026-04-22 19:56 | 2.96120 | 104.22858 | 32837 ft | 476 kts | 33° |
| 2026-04-22 19:56 | 3.01748 | 104.26362 | 32835 ft | 476 kts | 33° |
| 2026-04-22 19:57 | 3.07371 | 104.29871 | 32829 ft | 476 kts | 33° |
| 2026-04-22 19:57 | 3.12961 | 104.33407 | 32830 ft | 475 kts | 33° |
| 2026-04-22 19:58 | 3.18573 | 104.36911 | 32831 ft | 475 kts | 32° |
| 2026-04-22 19:58 | 3.24195 | 104.40382 | 32827 ft | 475 kts | 32° |
| 2026-04-22 20:00 | 3.43834 | 104.52557 | 32833 ft | 475 kts | 33° |
| 2026-04-22 20:01 | 3.49462 | 104.56052 | 32827 ft | 476 kts | 33° |
| 2026-04-22 20:01 | 3.55091 | 104.59550 | 32829 ft | 476 kts | 33° |
| 2026-04-22 20:02 | 3.60733 | 104.63058 | 32831 ft | 477 kts | 33° |
| 2026-04-22 20:02 | 3.66340 | 104.66544 | 32830 ft | 478 kts | 33° |
| 2026-04-22 20:03 | 3.71990 | 104.70058 | 32832 ft | 479 kts | 33° |
| 2026-04-22 20:03 | 3.77657 | 104.73584 | 32827 ft | 479 kts | 33° |
| 2026-04-22 20:04 | 3.83320 | 104.77106 | 32831 ft | 479 kts | 32° |
| 2026-04-22 20:04 | 3.88990 | 104.80635 | 32836 ft | 480 kts | 32° |
| 2026-04-22 20:05 | 3.94660 | 104.84167 | 32830 ft | 480 kts | 32° |
| 2026-04-22 20:05 | 4.00337 | 104.87704 | 32828 ft | 480 kts | 32° |
| 2026-04-22 20:06 | 4.06006 | 104.91237 | 32824 ft | 480 kts | 32° |
| 2026-04-22 20:06 | 4.11673 | 104.94770 | 32824 ft | 479 kts | 32° |
| 2026-04-22 20:07 | 4.17309 | 104.98284 | 32830 ft | 479 kts | 32° |
| 2026-04-22 20:07 | 4.22973 | 105.01813 | 32832 ft | 479 kts | 32° |
| 2026-04-22 20:08 | 4.28627 | 105.05329 | 32826 ft | 478 kts | 32° |
| 2026-04-22 20:08 | 4.34284 | 105.08845 | 32831 ft | 478 kts | 32° |
| 2026-04-22 20:09 | 4.39939 | 105.12363 | 32831 ft | 478 kts | 32° |
| 2026-04-22 20:09 | 4.45581 | 105.15875 | 32833 ft | 477 kts | 32° |
| 2026-04-22 20:10 | 4.51228 | 105.19390 | 32828 ft | 477 kts | 32° |
| 2026-04-22 20:10 | 4.56864 | 105.22899 | 32828 ft | 477 kts | 32° |
| 2026-04-22 20:11 | 4.62506 | 105.26413 | 32830 ft | 477 kts | 32° |
| 2026-04-22 20:11 | 4.68143 | 105.29924 | 32832 ft | 477 kts | 32° |
| 2026-04-22 20:12 | 4.73776 | 105.33434 | 32832 ft | 477 kts | 32° |
| 2026-04-22 20:12 | 4.78471 | 105.36360 | 32830 ft | 477 kts | 32° |
| 2026-04-22 20:13 | 4.84999 | 105.40482 | 32833 ft | 477 kts | 33° |
| 2026-04-22 20:13 | 4.90568 | 105.44118 | 32827 ft | 478 kts | 33° |
| 2026-04-22 20:14 | 4.96134 | 105.47764 | 32830 ft | 478 kts | 33° |
| 2026-04-22 20:14 | 5.01710 | 105.51402 | 32830 ft | 478 kts | 33° |
| 2026-04-22 20:15 | 5.07292 | 105.55037 | 32826 ft | 479 kts | 33° |
| 2026-04-22 20:15 | 5.12883 | 105.58676 | 32826 ft | 479 kts | 33° |
| 2026-04-22 20:16 | 5.18474 | 105.62316 | 32830 ft | 479 kts | 33° |
| 2026-04-22 20:16 | 5.24067 | 105.65959 | 32834 ft | 479 kts | 33° |
| 2026-04-22 20:17 | 5.29627 | 105.69580 | 32827 ft | 479 kts | 33° |
| 2026-04-22 20:17 | 5.35218 | 105.73224 | 32825 ft | 479 kts | 33° |
| 2026-04-22 20:18 | 5.40812 | 105.76869 | 32830 ft | 479 kts | 33° |
| 2026-04-22 20:18 | 5.46404 | 105.80515 | 32833 ft | 479 kts | 33° |
| 2026-04-22 20:19 | 5.51995 | 105.84161 | 32827 ft | 479 kts | 33° |
| 2026-04-22 20:19 | 5.56643 | 105.87192 | 32820 ft | 479 kts | 33° |
| 2026-04-22 20:20 | 5.63182 | 105.91457 | 32830 ft | 479 kts | 33° |
| 2026-04-22 20:20 | 5.68774 | 105.95106 | 32826 ft | 479 kts | 34° |
| 2026-04-22 20:21 | 5.74329 | 105.98731 | 32819 ft | 479 kts | 34° |
| 2026-04-22 20:21 | 5.79015 | 106.01790 | 32836 ft | 479 kts | 34° |
| 2026-04-22 20:22 | 5.84600 | 106.05437 | 32831 ft | 479 kts | 34° |
| 2026-04-22 20:22 | 5.90192 | 106.09089 | 32822 ft | 479 kts | 34° |
| 2026-04-22 20:23 | 5.95744 | 106.12716 | 32822 ft | 479 kts | 34° |
| 2026-04-22 20:23 | 6.01327 | 106.16364 | 32831 ft | 479 kts | 34° |
| 2026-04-22 20:24 | 6.06907 | 106.20011 | 32828 ft | 479 kts | 34° |
| 2026-04-22 20:24 | 6.12499 | 106.23666 | 32838 ft | 479 kts | 34° |
| 2026-04-22 20:25 | 6.18082 | 106.27317 | 32819 ft | 479 kts | 34° |
| 2026-04-22 20:25 | 6.23661 | 106.30966 | 32825 ft | 479 kts | 34° |
| 2026-04-22 20:26 | 6.29209 | 106.34596 | 32833 ft | 479 kts | 34° |
| 2026-04-22 20:26 | 6.34798 | 106.38253 | 32833 ft | 479 kts | 34° |
| 2026-04-22 20:27 | 6.40386 | 106.41911 | 32828 ft | 479 kts | 34° |
| 2026-04-22 20:27 | 6.45979 | 106.45573 | 32833 ft | 479 kts | 34° |
| 2026-04-22 20:28 | 6.51570 | 106.49234 | 32835 ft | 480 kts | 34° |
| 2026-04-22 20:28 | 6.57163 | 106.52899 | 32825 ft | 480 kts | 34° |
| 2026-04-22 20:29 | 6.62757 | 106.56565 | 32818 ft | 480 kts | 34° |
| 2026-04-22 20:29 | 6.68346 | 106.60228 | 32833 ft | 480 kts | 34° |
| 2026-04-22 20:30 | 6.73912 | 106.63877 | 32830 ft | 480 kts | 34° |
| 2026-04-22 20:30 | 6.79502 | 106.67544 | 32820 ft | 480 kts | 34° |
| 2026-04-22 20:31 | 6.85095 | 106.71213 | 32833 ft | 480 kts | 34° |
| 2026-04-22 20:31 | 6.90685 | 106.74882 | 32830 ft | 480 kts | 34° |
| 2026-04-22 20:32 | 6.96278 | 106.78554 | 32829 ft | 480 kts | 34° |
| 2026-04-22 20:32 | 7.01863 | 106.82222 | 32824 ft | 480 kts | 34° |
| 2026-04-22 20:33 | 7.07449 | 106.85894 | 32825 ft | 479 kts | 34° |
| 2026-04-22 20:33 | 7.13032 | 106.89569 | 32828 ft | 479 kts | 34° |
| 2026-04-22 20:34 | 7.18615 | 106.93246 | 32833 ft | 479 kts | 34° |
| 2026-04-22 20:34 | 7.24200 | 106.96924 | 32821 ft | 479 kts | 34° |
| 2026-04-22 20:35 | 7.29777 | 107.00598 | 32832 ft | 479 kts | 34° |
| 2026-04-22 20:35 | 7.35324 | 107.04254 | 32834 ft | 479 kts | 34° |
| 2026-04-22 20:36 | 7.40899 | 107.07929 | 32830 ft | 479 kts | 34° |
| 2026-04-22 20:36 | 7.46472 | 107.11604 | 32830 ft | 479 kts | 34° |
| 2026-04-22 20:37 | 7.52042 | 107.15278 | 32823 ft | 478 kts | 34° |
| 2026-04-22 20:37 | 7.57611 | 107.18952 | 32829 ft | 478 kts | 34° |
| 2026-04-22 20:38 | 7.63171 | 107.22622 | 32830 ft | 478 kts | 33° |
| 2026-04-22 20:38 | 7.68733 | 107.26294 | 32831 ft | 477 kts | 33° |
| 2026-04-22 20:39 | 7.74291 | 107.29965 | 32832 ft | 477 kts | 33° |
| 2026-04-22 20:39 | 7.79833 | 107.33627 | 32838 ft | 477 kts | 34° |
| 2026-04-22 20:40 | 7.85387 | 107.37297 | 32833 ft | 476 kts | 34° |
| 2026-04-22 20:40 | 7.90931 | 107.40962 | 32828 ft | 476 kts | 34° |
| 2026-04-22 20:41 | 7.96434 | 107.44601 | 32835 ft | 476 kts | 34° |
| 2026-04-22 20:41 | 8.01971 | 107.48264 | 32828 ft | 476 kts | 33° |
| 2026-04-22 20:42 | 8.07505 | 107.51926 | 32833 ft | 476 kts | 33° |
| 2026-04-22 20:42 | 8.13043 | 107.55592 | 32833 ft | 476 kts | 33° |
| 2026-04-22 20:43 | 8.18575 | 107.59255 | 32834 ft | 476 kts | 33° |
| 2026-04-22 20:43 | 8.24106 | 107.62919 | 32839 ft | 475 kts | 33° |
| 2026-04-22 20:44 | 8.29639 | 107.66585 | 32836 ft | 475 kts | 34° |
| 2026-04-22 20:44 | 8.35161 | 107.70245 | 32839 ft | 475 kts | 34° |
| 2026-04-22 20:45 | 8.40688 | 107.73910 | 32838 ft | 475 kts | 34° |
| 2026-04-22 20:45 | 8.46215 | 107.77577 | 32838 ft | 475 kts | 34° |
| 2026-04-22 20:46 | 8.54508 | 107.83080 | 32841 ft | 475 kts | 34° |
| 2026-04-22 20:46 | 8.60034 | 107.86748 | 32838 ft | 475 kts | 34° |
| 2026-04-22 20:47 | 8.65522 | 107.90393 | 32840 ft | 475 kts | 34° |
| 2026-04-22 20:47 | 8.71041 | 107.94059 | 32833 ft | 475 kts | 34° |
| 2026-04-22 20:48 | 8.76558 | 107.97726 | 32842 ft | 474 kts | 34° |
| 2026-04-22 20:48 | 8.82074 | 108.01394 | 32842 ft | 474 kts | 34° |
| 2026-04-22 20:49 | 8.87588 | 108.05061 | 32831 ft | 474 kts | 34° |
| 2026-04-22 20:49 | 8.93093 | 108.08723 | 32841 ft | 474 kts | 34° |
| 2026-04-22 20:50 | 8.98593 | 108.12385 | 32844 ft | 473 kts | 34° |
| 2026-04-22 20:50 | 9.04058 | 108.16023 | 32848 ft | 473 kts | 34° |
| 2026-04-22 20:51 | 9.09552 | 108.19683 | 32839 ft | 473 kts | 34° |
| 2026-04-22 20:51 | 9.15044 | 108.23343 | 32841 ft | 473 kts | 34° |
| 2026-04-22 20:52 | 9.20538 | 108.27005 | 32839 ft | 472 kts | 34° |
| 2026-04-22 20:52 | 9.26022 | 108.30662 | 32844 ft | 472 kts | 34° |
| 2026-04-22 20:53 | 9.31505 | 108.34320 | 32845 ft | 472 kts | 34° |
| 2026-04-22 20:53 | 9.36989 | 108.37980 | 32845 ft | 472 kts | 34° |
| 2026-04-22 20:54 | 9.42461 | 108.41634 | 32844 ft | 472 kts | 34° |
| 2026-04-22 20:54 | 9.47944 | 108.45295 | 32845 ft | 471 kts | 34° |
| 2026-04-22 20:55 | 9.53426 | 108.48949 | 32842 ft | 471 kts | 34° |
| 2026-04-22 20:55 | 9.58897 | 108.52597 | 32839 ft | 471 kts | 34° |
| 2026-04-22 20:56 | 9.64336 | 108.56226 | 32839 ft | 471 kts | 34° |
| 2026-04-22 20:56 | 9.69809 | 108.59880 | 32842 ft | 470 kts | 34° |
| 2026-04-22 20:57 | 9.75269 | 108.63527 | 32844 ft | 470 kts | 34° |
| 2026-04-22 20:57 | 9.80726 | 108.67174 | 32846 ft | 469 kts | 34° |
| 2026-04-22 20:58 | 9.86172 | 108.70815 | 32842 ft | 469 kts | 34° |
| 2026-04-22 20:58 | 9.91617 | 108.74457 | 32844 ft | 468 kts | 34° |
| 2026-04-22 20:59 | 9.97054 | 108.78095 | 32840 ft | 468 kts | 34° |
| 2026-04-22 20:59 | 10.02483 | 108.81727 | 32839 ft | 467 kts | 34° |
| 2026-04-22 21:00 | 10.07905 | 108.85353 | 32842 ft | 466 kts | 34° |
| 2026-04-22 21:00 | 10.13318 | 108.88975 | 32842 ft | 466 kts | 34° |
| 2026-04-22 21:01 | 10.18732 | 108.92600 | 32843 ft | 465 kts | 34° |
| 2026-04-22 21:01 | 10.24100 | 108.96196 | 32846 ft | 465 kts | 34° |
| 2026-04-22 21:02 | 10.29495 | 108.99813 | 32841 ft | 464 kts | 34° |
| 2026-04-22 21:02 | 10.34884 | 109.03426 | 32844 ft | 464 kts | 34° |
| 2026-04-22 21:03 | 10.40273 | 109.07042 | 32838 ft | 464 kts | 34° |
| 2026-04-22 21:03 | 10.45657 | 109.10654 | 32851 ft | 463 kts | 34° |
| 2026-04-22 21:04 | 10.51027 | 109.14260 | 32857 ft | 463 kts | 34° |
| 2026-04-22 21:04 | 10.56409 | 109.17875 | 32848 ft | 463 kts | 34° |
| 2026-04-22 21:05 | 10.61792 | 109.21492 | 32853 ft | 463 kts | 34° |
| 2026-04-22 21:05 | 10.67167 | 109.25105 | 32854 ft | 463 kts | 34° |
| 2026-04-22 21:06 | 10.72548 | 109.28724 | 32850 ft | 463 kts | 34° |
| 2026-04-22 21:06 | 10.77922 | 109.32340 | 32837 ft | 463 kts | 34° |
| 2026-04-22 21:07 | 10.83262 | 109.35935 | 32852 ft | 463 kts | 34° |
| 2026-04-22 21:07 | 10.88638 | 109.39555 | 32850 ft | 463 kts | 34° |
| 2026-04-22 21:08 | 10.94015 | 109.43178 | 32836 ft | 463 kts | 34° |
| 2026-04-22 21:08 | 10.99391 | 109.46801 | 32847 ft | 463 kts | 34° |
| 2026-04-22 21:09 | 11.04758 | 109.50422 | 32848 ft | 463 kts | 34° |
| 2026-04-22 21:09 | 11.10134 | 109.54048 | 32837 ft | 463 kts | 34° |
| 2026-04-22 21:10 | 11.14607 | 109.57032 | 32847 ft | 463 kts | 33° |
| 2026-04-22 21:10 | 11.20020 | 109.60584 | 32842 ft | 463 kts | 33° |
| 2026-04-22 21:11 | 11.25436 | 109.64136 | 32840 ft | 463 kts | 33° |
| 2026-04-22 21:11 | 11.30840 | 109.67692 | 32849 ft | 462 kts | 33° |
| 2026-04-22 21:12 | 11.37118 | 109.71830 | 32848 ft | 462 kts | 33° |
| 2026-04-22 21:12 | 11.41638 | 109.74813 | 32846 ft | 462 kts | 33° |
| 2026-04-22 21:13 | 11.47027 | 109.78370 | 32843 ft | 462 kts | 33° |
| 2026-04-22 21:13 | 11.52415 | 109.81927 | 32851 ft | 461 kts | 33° |
| 2026-04-22 21:14 | 11.57801 | 109.85485 | 32845 ft | 461 kts | 33° |
| 2026-04-22 21:14 | 11.63148 | 109.89018 | 32850 ft | 461 kts | 33° |
| 2026-04-22 21:15 | 11.68524 | 109.92573 | 32845 ft | 460 kts | 33° |
| 2026-04-22 21:15 | 11.73897 | 109.96126 | 32846 ft | 460 kts | 33° |
| 2026-04-22 21:16 | 11.79270 | 109.99682 | 32849 ft | 460 kts | 33° |
| 2026-04-22 21:16 | 11.84639 | 110.03237 | 32848 ft | 460 kts | 33° |
| 2026-04-22 21:17 | 11.90014 | 110.06797 | 32840 ft | 460 kts | 33° |
| 2026-04-22 21:17 | 11.95375 | 110.10350 | 32846 ft | 460 kts | 33° |
| 2026-04-22 21:18 | 12.00745 | 110.13911 | 32844 ft | 460 kts | 33° |
| 2026-04-22 21:18 | 12.06109 | 110.17470 | 32846 ft | 460 kts | 33° |
| 2026-04-22 21:19 | 12.11473 | 110.21030 | 32847 ft | 460 kts | 33° |
| 2026-04-22 21:19 | 12.16838 | 110.24592 | 32846 ft | 460 kts | 33° |
| 2026-04-22 21:20 | 12.22195 | 110.28152 | 32843 ft | 460 kts | 33° |
| 2026-04-22 21:20 | 12.27560 | 110.31718 | 32842 ft | 460 kts | 33° |
| 2026-04-22 21:21 | 12.32924 | 110.35286 | 32846 ft | 460 kts | 33° |
| 2026-04-22 21:21 | 12.38281 | 110.38865 | 32845 ft | 459 kts | 34° |
| 2026-04-22 21:22 | 12.43562 | 110.42543 | 32840 ft | 459 kts | 35° |
| 2026-04-22 21:22 | 12.48801 | 110.46229 | 32842 ft | 460 kts | 35° |
| 2026-04-22 21:23 | 12.54077 | 110.49926 | 32844 ft | 459 kts | 35° |
| 2026-04-22 21:23 | 12.59355 | 110.53614 | 32845 ft | 459 kts | 35° |
| 2026-04-22 21:24 | 12.64626 | 110.57298 | 32844 ft | 459 kts | 35° |
| 2026-04-22 21:24 | 12.69903 | 110.60990 | 32842 ft | 459 kts | 35° |
| 2026-04-22 21:25 | 12.75187 | 110.64688 | 32841 ft | 459 kts | 35° |
| 2026-04-22 21:25 | 12.80462 | 110.68378 | 32845 ft | 459 kts | 35° |
| 2026-04-22 21:26 | 12.85701 | 110.72044 | 32843 ft | 459 kts | 35° |
| 2026-04-22 21:26 | 12.90977 | 110.75739 | 32845 ft | 459 kts | 35° |
| 2026-04-22 21:27 | 12.96247 | 110.79432 | 32847 ft | 459 kts | 35° |
| 2026-04-22 21:27 | 13.01520 | 110.83130 | 32846 ft | 458 kts | 35° |
| 2026-04-22 21:28 | 13.06784 | 110.86823 | 32844 ft | 458 kts | 35° |
| 2026-04-22 21:28 | 13.12043 | 110.90515 | 32845 ft | 458 kts | 35° |
| 2026-04-22 21:29 | 13.17268 | 110.94184 | 32844 ft | 458 kts | 35° |
| 2026-04-22 21:29 | 13.22518 | 110.97873 | 32846 ft | 457 kts | 35° |
| 2026-04-22 21:30 | 13.27761 | 111.01560 | 32842 ft | 457 kts | 35° |
| 2026-04-22 21:30 | 13.33010 | 111.05252 | 32841 ft | 456 kts | 35° |
| 2026-04-22 21:31 | 13.38244 | 111.08936 | 32844 ft | 456 kts | 35° |
| 2026-04-22 21:31 | 13.43471 | 111.12617 | 32845 ft | 455 kts | 35° |
| 2026-04-22 21:32 | 13.48691 | 111.16295 | 32842 ft | 455 kts | 35° |
| 2026-04-22 21:32 | 13.53904 | 111.19970 | 32842 ft | 454 kts | 35° |
| 2026-04-22 21:33 | 13.59117 | 111.23647 | 32843 ft | 454 kts | 35° |
| 2026-04-22 21:33 | 13.64320 | 111.27319 | 32846 ft | 453 kts | 35° |
| 2026-04-22 21:34 | 13.69491 | 111.30970 | 32844 ft | 453 kts | 35° |
| 2026-04-22 21:34 | 13.74688 | 111.34642 | 32848 ft | 453 kts | 35° |
| 2026-04-22 21:35 | 13.79882 | 111.38314 | 32843 ft | 453 kts | 35° |
| 2026-04-22 21:35 | 13.85081 | 111.41992 | 32848 ft | 453 kts | 36° |
| 2026-04-22 21:36 | 13.90273 | 111.45667 | 32840 ft | 453 kts | 36° |
| 2026-04-22 21:36 | 13.95461 | 111.49341 | 32843 ft | 453 kts | 36° |
| 2026-04-22 21:37 | 14.00653 | 111.53010 | 32845 ft | 453 kts | 35° |
| 2026-04-22 21:37 | 14.05824 | 111.56640 | 32842 ft | 453 kts | 35° |
| 2026-04-22 21:38 | 14.11026 | 111.60292 | 32845 ft | 453 kts | 35° |
| 2026-04-22 21:38 | 14.16228 | 111.63950 | 32848 ft | 453 kts | 35° |
| 2026-04-22 21:39 | 14.21436 | 111.67616 | 32845 ft | 453 kts | 35° |
| 2026-04-22 21:39 | 14.26632 | 111.71276 | 32843 ft | 453 kts | 35° |
| 2026-04-22 21:40 | 14.31836 | 111.74944 | 32842 ft | 453 kts | 35° |
| 2026-04-22 21:40 | 14.37033 | 111.78609 | 32843 ft | 452 kts | 35° |
| 2026-04-22 21:41 | 14.42231 | 111.82277 | 32842 ft | 452 kts | 35° |
| 2026-04-22 21:41 | 14.47427 | 111.85945 | 32844 ft | 452 kts | 35° |
| 2026-04-22 21:42 | 14.52619 | 111.89614 | 32844 ft | 452 kts | 35° |
| 2026-04-22 21:42 | 14.57768 | 111.93255 | 32842 ft | 452 kts | 35° |
| 2026-04-22 21:43 | 14.62949 | 111.96948 | 32845 ft | 452 kts | 35° |
| 2026-04-22 21:43 | 14.68118 | 112.00641 | 32846 ft | 452 kts | 35° |
| 2026-04-22 21:44 | 14.73298 | 112.04321 | 32844 ft | 452 kts | 35° |
| 2026-04-22 21:44 | 14.78502 | 112.07969 | 32847 ft | 452 kts | 34° |
| 2026-04-22 21:45 | 14.83707 | 112.11614 | 32849 ft | 452 kts | 34° |
| 2026-04-22 21:45 | 14.88906 | 112.15264 | 32846 ft | 452 kts | 35° |
| 2026-04-22 21:46 | 14.94099 | 112.18916 | 32847 ft | 452 kts | 35° |
| 2026-04-22 21:46 | 14.99290 | 112.22571 | 32844 ft | 452 kts | 35° |
| 2026-04-22 21:47 | 15.04492 | 112.26234 | 32847 ft | 452 kts | 34° |
| 2026-04-22 21:47 | 15.09650 | 112.29869 | 32849 ft | 452 kts | 34° |
| 2026-04-22 21:48 | 15.14844 | 112.33532 | 32845 ft | 452 kts | 34° |
| 2026-04-22 21:48 | 15.20031 | 112.37191 | 32848 ft | 452 kts | 34° |
| 2026-04-22 21:49 | 15.25228 | 112.40860 | 32846 ft | 452 kts | 34° |
| 2026-04-22 21:49 | 15.30415 | 112.44525 | 32851 ft | 451 kts | 34° |
| 2026-04-22 21:50 | 15.35609 | 112.48196 | 32850 ft | 452 kts | 34° |
| 2026-04-22 21:50 | 15.40800 | 112.51867 | 32844 ft | 452 kts | 34° |
| 2026-04-22 21:51 | 15.45990 | 112.55540 | 32849 ft | 452 kts | 34° |
| 2026-04-22 21:52 | 15.53779 | 112.61057 | 32848 ft | 452 kts | 34° |
| 2026-04-22 21:52 | 15.58969 | 112.64735 | 32849 ft | 452 kts | 34° |
| 2026-04-22 21:53 | 15.64158 | 112.68416 | 32852 ft | 452 kts | 34° |
| 2026-04-22 21:53 | 15.69349 | 112.72100 | 32846 ft | 452 kts | 34° |
| 2026-04-22 21:54 | 15.74510 | 112.75765 | 32856 ft | 452 kts | 34° |
| 2026-04-22 21:54 | 15.79699 | 112.79452 | 32850 ft | 452 kts | 34° |
| 2026-04-22 21:55 | 15.84888 | 112.83142 | 32847 ft | 452 kts | 34° |
| 2026-04-22 21:55 | 15.90083 | 112.86838 | 32849 ft | 452 kts | 34° |
| 2026-04-22 21:56 | 15.95272 | 112.90532 | 32847 ft | 452 kts | 34° |
| 2026-04-22 21:56 | 16.00461 | 112.94229 | 32850 ft | 452 kts | 34° |
| 2026-04-22 21:57 | 16.05654 | 112.97931 | 32849 ft | 452 kts | 34° |
| 2026-04-22 21:57 | 16.10845 | 113.01633 | 32853 ft | 452 kts | 34° |
| 2026-04-22 21:58 | 16.16034 | 113.05337 | 32847 ft | 452 kts | 34° |
| 2026-04-22 21:58 | 16.21226 | 113.09046 | 32850 ft | 452 kts | 34° |
| 2026-04-22 21:59 | 16.26418 | 113.12756 | 32850 ft | 453 kts | 34° |
| 2026-04-22 21:59 | 16.31606 | 113.16467 | 32854 ft | 453 kts | 34° |
| 2026-04-22 22:00 | 16.36769 | 113.20162 | 32851 ft | 453 kts | 34° |
| 2026-04-22 22:00 | 16.41965 | 113.23882 | 32852 ft | 453 kts | 34° |
| 2026-04-22 22:01 | 16.46316 | 113.27000 | 32851 ft | 453 kts | 34° |
| 2026-04-22 22:01 | 16.51481 | 113.30704 | 32854 ft | 454 kts | 34° |
| 2026-04-22 22:02 | 16.56684 | 113.34437 | 32850 ft | 454 kts | 34° |
| 2026-04-22 22:02 | 16.61887 | 113.38172 | 32850 ft | 454 kts | 34° |
| 2026-04-22 22:03 | 16.67098 | 113.41916 | 32846 ft | 454 kts | 34° |
| 2026-04-22 22:03 | 16.72298 | 113.45655 | 32846 ft | 454 kts | 34° |
| 2026-04-22 22:04 | 16.77501 | 113.49398 | 32854 ft | 454 kts | 34° |
| 2026-04-22 22:04 | 16.82699 | 113.53140 | 32862 ft | 454 kts | 34° |
| 2026-04-22 22:05 | 16.87864 | 113.56861 | 32860 ft | 455 kts | 33° |
| 2026-04-22 22:05 | 16.93075 | 113.60618 | 32858 ft | 455 kts | 33° |
| 2026-04-22 22:06 | 16.98291 | 113.64382 | 32856 ft | 456 kts | 33° |
| 2026-04-22 22:06 | 17.03583 | 113.68024 | 32849 ft | 455 kts | 27° |
| 2026-04-22 22:07 | 17.09439 | 113.70500 | 32861 ft | 455 kts | 19° |
| 2026-04-22 22:07 | 17.15404 | 113.72726 | 32854 ft | 455 kts | 19° |
| 2026-04-22 22:08 | 17.21369 | 113.74978 | 32857 ft | 456 kts | 19° |
| 2026-04-22 22:08 | 17.27334 | 113.77268 | 32857 ft | 457 kts | 19° |
| 2026-04-22 22:09 | 17.33260 | 113.79559 | 32855 ft | 457 kts | 19° |
| 2026-04-22 22:09 | 17.39223 | 113.81868 | 32853 ft | 458 kts | 19° |
| 2026-04-22 22:10 | 17.45203 | 113.84185 | 32862 ft | 458 kts | 19° |
| 2026-04-22 22:10 | 17.51185 | 113.86501 | 32853 ft | 459 kts | 19° |
| 2026-04-22 22:11 | 17.57172 | 113.88823 | 32858 ft | 459 kts | 19° |
| 2026-04-22 22:11 | 17.63170 | 113.91150 | 32854 ft | 460 kts | 19° |
| 2026-04-22 22:12 | 17.69174 | 113.93480 | 32860 ft | 460 kts | 19° |
| 2026-04-22 22:12 | 17.75192 | 113.95818 | 32859 ft | 461 kts | 19° |
| 2026-04-22 22:13 | 17.81207 | 113.98157 | 32851 ft | 461 kts | 19° |
| 2026-04-22 22:13 | 17.87232 | 114.00501 | 32860 ft | 462 kts | 19° |
| 2026-04-22 22:14 | 17.93262 | 114.02849 | 32862 ft | 462 kts | 19° |
| 2026-04-22 22:14 | 17.99303 | 114.05203 | 32860 ft | 463 kts | 19° |
| 2026-04-22 22:15 | 18.05305 | 114.07543 | 32854 ft | 463 kts | 19° |
| 2026-04-22 22:15 | 18.11358 | 114.09905 | 32860 ft | 463 kts | 19° |
| 2026-04-22 22:16 | 18.17399 | 114.12263 | 32857 ft | 464 kts | 19° |
| 2026-04-22 22:16 | 18.23455 | 114.14630 | 32864 ft | 464 kts | 19° |
| 2026-04-22 22:17 | 18.29512 | 114.16999 | 32863 ft | 464 kts | 19° |
| 2026-04-22 22:17 | 18.35571 | 114.19370 | 32858 ft | 464 kts | 19° |
| 2026-04-22 22:18 | 18.41587 | 114.21727 | 32863 ft | 465 kts | 19° |
| 2026-04-22 22:18 | 18.47654 | 114.24104 | 32858 ft | 465 kts | 19° |
| 2026-04-22 22:19 | 18.53713 | 114.26481 | 32859 ft | 465 kts | 19° |
| 2026-04-22 22:19 | 18.59777 | 114.28861 | 32860 ft | 465 kts | 18° |
| 2026-04-22 22:20 | 18.65844 | 114.31245 | 32864 ft | 465 kts | 18° |
| 2026-04-22 22:20 | 18.71909 | 114.33629 | 32858 ft | 465 kts | 18° |
| 2026-04-22 22:21 | 18.77977 | 114.36017 | 32865 ft | 465 kts | 18° |
| 2026-04-22 22:21 | 18.84045 | 114.38407 | 32857 ft | 466 kts | 18° |
| 2026-04-22 22:22 | 18.90078 | 114.40785 | 32865 ft | 466 kts | 18° |
| 2026-04-22 22:22 | 18.96150 | 114.43176 | 32861 ft | 466 kts | 17° |
| 2026-04-22 22:23 | 19.02455 | 114.44468 | 32864 ft | 460 kts | 360° |
| 2026-04-22 22:23 | 19.08810 | 114.44059 | 32861 ft | 457 kts | 352° |
| 2026-04-22 22:24 | 19.15156 | 114.43428 | 32864 ft | 458 kts | 352° |
| 2026-04-22 22:24 | 19.21505 | 114.42834 | 32862 ft | 458 kts | 353° |
| 2026-04-22 22:25 | 19.27865 | 114.42272 | 32864 ft | 459 kts | 353° |
| 2026-04-22 22:25 | 19.34226 | 114.41719 | 32863 ft | 459 kts | 353° |
| 2026-04-22 22:26 | 19.40556 | 114.41169 | 32863 ft | 459 kts | 353° |
| 2026-04-22 22:26 | 19.46916 | 114.40614 | 32863 ft | 459 kts | 352° |
| 2026-04-22 22:27 | 19.53285 | 114.40057 | 32865 ft | 459 kts | 352° |
| 2026-04-22 22:27 | 19.59657 | 114.39499 | 32867 ft | 459 kts | 352° |
| 2026-04-22 22:28 | 19.66023 | 114.38942 | 32864 ft | 459 kts | 352° |
| 2026-04-22 22:28 | 19.72384 | 114.38384 | 32865 ft | 459 kts | 352° |
| 2026-04-22 22:29 | 19.78747 | 114.37826 | 32864 ft | 459 kts | 352° |
| 2026-04-22 22:29 | 19.85108 | 114.37268 | 32862 ft | 458 kts | 352° |
| 2026-04-22 22:30 | 19.91474 | 114.36712 | 32862 ft | 458 kts | 352° |
| 2026-04-22 22:30 | 19.97826 | 114.36157 | 32862 ft | 458 kts | 352° |
| 2026-04-22 22:31 | 20.04147 | 114.35604 | 32861 ft | 458 kts | 352° |
| 2026-04-22 22:31 | 20.10502 | 114.35048 | 32867 ft | 458 kts | 352° |
| 2026-04-22 22:32 | 20.16858 | 114.34491 | 32869 ft | 458 kts | 352° |
| 2026-04-22 22:32 | 20.23225 | 114.33932 | 32866 ft | 458 kts | 352° |
| 2026-04-22 22:33 | 20.29585 | 114.33374 | 32866 ft | 458 kts | 352° |
| 2026-04-22 22:33 | 20.35948 | 114.32814 | 32870 ft | 459 kts | 352° |
| 2026-04-22 22:34 | 20.42309 | 114.32255 | 32867 ft | 459 kts | 352° |
| 2026-04-22 22:34 | 20.48637 | 114.31698 | 32865 ft | 459 kts | 352° |
| 2026-04-22 22:35 | 20.54996 | 114.31138 | 32866 ft | 459 kts | 352° |
| 2026-04-22 22:35 | 20.61364 | 114.30576 | 32867 ft | 459 kts | 351° |
| 2026-04-22 22:36 | 20.67720 | 114.30015 | 32870 ft | 459 kts | 351° |
| 2026-04-22 22:36 | 20.74082 | 114.29453 | 32869 ft | 459 kts | 351° |
| 2026-04-22 22:37 | 20.80444 | 114.28891 | 32865 ft | 459 kts | 351° |
| 2026-04-22 22:37 | 20.86803 | 114.28334 | 32863 ft | 459 kts | 351° |
| 2026-04-22 22:38 | 20.93165 | 114.27788 | 32867 ft | 459 kts | 351° |
| 2026-04-22 22:38 | 20.99530 | 114.27239 | 32864 ft | 459 kts | 351° |
| 2026-04-22 22:39 | 21.05892 | 114.26687 | 32869 ft | 458 kts | 351° |
| 2026-04-22 22:39 | 21.12212 | 114.26117 | 32867 ft | 458 kts | 351° |
| 2026-04-22 22:40 | 21.18566 | 114.25537 | 32868 ft | 458 kts | 351° |
| 2026-04-22 22:40 | 21.24925 | 114.24960 | 32867 ft | 458 kts | 351° |
| 2026-04-22 22:41 | 21.31280 | 114.24384 | 32865 ft | 458 kts | 351° |
| 2026-04-22 22:41 | 21.37637 | 114.23811 | 32868 ft | 458 kts | 351° |
| 2026-04-22 22:42 | 21.43996 | 114.23242 | 32864 ft | 458 kts | 351° |
| 2026-04-22 22:42 | 21.50343 | 114.22673 | 32860 ft | 458 kts | 350° |
| 2026-04-22 22:43 | 21.56696 | 114.22102 | 32857 ft | 458 kts | 350° |
| 2026-04-22 22:43 | 21.63002 | 114.21534 | 32865 ft | 458 kts | 350° |
| 2026-04-22 22:44 | 21.69354 | 114.20963 | 32862 ft | 457 kts | 350° |
| 2026-04-22 22:44 | 21.75694 | 114.20395 | 32861 ft | 457 kts | 350° |
| 2026-04-22 22:45 | 21.82034 | 114.19826 | 32859 ft | 457 kts | 350° |
| 2026-04-22 22:45 | 21.88375 | 114.19256 | 32858 ft | 457 kts | 350° |
| 2026-04-22 22:46 | 21.94713 | 114.18686 | 32862 ft | 457 kts | 350° |
| 2026-04-22 22:46 | 22.01047 | 114.18116 | 32863 ft | 457 kts | 350° |
| 2026-04-22 22:47 | 22.07388 | 114.17544 | 32850 ft | 457 kts | 350° |
| 2026-04-22 22:47 | 22.13725 | 114.16973 | 32845 ft | 457 kts | 349° |
| 2026-04-22 22:48 | 22.20063 | 114.16401 | 32839 ft | 457 kts | 349° |
| 2026-04-22 22:48 | 22.26397 | 114.15829 | 32841 ft | 456 kts | 349° |
| 2026-04-22 22:49 | 22.32712 | 114.15257 | 32839 ft | 456 kts | 349° |
| 2026-04-22 22:49 | 22.38993 | 114.14688 | 32839 ft | 455 kts | 349° |
| 2026-04-22 22:50 | 22.45297 | 114.14117 | 32844 ft | 455 kts | 349° |
| 2026-04-22 22:50 | 22.51613 | 114.13526 | 32840 ft | 454 kts | 346° |
| 2026-04-22 22:51 | 22.57590 | 114.11750 | 32830 ft | 440 kts | 329° |
| 2026-04-22 22:51 | 22.63096 | 114.08882 | 32830 ft | 439 kts | 328° |
| 2026-04-22 22:52 | 22.67668 | 114.06481 | 32827 ft | 440 kts | 329° |
| 2026-04-22 22:52 | 22.74180 | 114.03116 | 33107 ft | 445 kts | 329° |
| 2026-04-22 22:52 | 22.76033 | 114.02167 | 33342 ft | 443 kts | 329° |
| 2026-04-22 22:53 | 22.78812 | 114.00744 | 33735 ft | 440 kts | 329° |
| 2026-04-22 22:53 | 22.81565 | 113.99332 | 34028 ft | 438 kts | 329° |
| 2026-04-22 22:53 | 22.84319 | 113.97917 | 34229 ft | 438 kts | 328° |
| 2026-04-22 22:53 | 22.87077 | 113.96499 | 34401 ft | 439 kts | 328° |
| 2026-04-22 22:54 | 22.89836 | 113.95080 | 34607 ft | 438 kts | 328° |
| 2026-04-22 22:54 | 22.92581 | 113.93660 | 34845 ft | 437 kts | 328° |
| 2026-04-22 22:54 | 22.95324 | 113.92231 | 34910 ft | 439 kts | 328° |
| 2026-04-22 22:55 | 23.00831 | 113.89361 | 34920 ft | 438 kts | 328° |
| 2026-04-22 22:55 | 23.09737 | 113.87297 | 34923 ft | 467 kts | 4° |
| 2026-04-22 22:56 | 23.12875 | 113.88335 | 34918 ft | 480 kts | 20° |
| 2026-04-22 22:56 | 23.15724 | 113.90318 | 34953 ft | 489 kts | 32° |
| 2026-04-22 22:56 | 23.21016 | 113.95017 | 34944 ft | 492 kts | 34° |
| 2026-04-22 22:57 | 23.26323 | 113.99714 | 34934 ft | 492 kts | 33° |
| 2026-04-22 22:57 | 23.31708 | 114.04325 | 34878 ft | 492 kts | 32° |
| 2026-04-22 22:58 | 23.37103 | 114.08928 | 34955 ft | 493 kts | 32° |
| 2026-04-22 22:58 | 23.42520 | 114.13560 | 34961 ft | 498 kts | 32° |
| 2026-04-22 22:59 | 23.47986 | 114.18245 | 34965 ft | 502 kts | 32° |
| 2026-04-22 22:59 | 23.53483 | 114.22965 | 34952 ft | 505 kts | 32° |
| 2026-04-22 23:00 | 23.59002 | 114.27711 | 34955 ft | 506 kts | 32° |
| 2026-04-22 23:00 | 23.64527 | 114.32462 | 34961 ft | 506 kts | 32° |
| 2026-04-22 23:01 | 23.70071 | 114.37089 | 34967 ft | 504 kts | 31° |
| 2026-04-22 23:01 | 23.75696 | 114.41657 | 34964 ft | 503 kts | 30° |
| 2026-04-22 23:02 | 23.81293 | 114.46218 | 34979 ft | 501 kts | 30° |
| 2026-04-22 23:02 | 23.86869 | 114.50793 | 34979 ft | 501 kts | 30° |
| 2026-04-22 23:03 | 23.92429 | 114.55368 | 34993 ft | 500 kts | 30° |
| 2026-04-22 23:03 | 23.97978 | 114.59939 | 34991 ft | 499 kts | 30° |
| 2026-04-22 23:04 | 24.03516 | 114.64504 | 34998 ft | 499 kts | 30° |
| 2026-04-22 23:04 | 24.09063 | 114.69080 | 35005 ft | 499 kts | 30° |
| 2026-04-22 23:05 | 24.14577 | 114.73636 | 35007 ft | 501 kts | 30° |
| 2026-04-22 23:05 | 24.20173 | 114.78266 | 35015 ft | 502 kts | 30° |
| 2026-04-22 23:06 | 24.25741 | 114.82797 | 35015 ft | 498 kts | 24° |
| 2026-04-22 23:06 | 24.31872 | 114.85968 | 35026 ft | 478 kts | 7° |
| 2026-04-22 23:07 | 24.38293 | 114.87565 | 35024 ft | 473 kts | 2° |
| 2026-04-22 23:07 | 24.44744 | 114.89058 | 35032 ft | 475 kts | 3° |
| 2026-04-22 23:08 | 24.51207 | 114.90637 | 35036 ft | 477 kts | 3° |
| 2026-04-22 23:08 | 24.57689 | 114.92244 | 35049 ft | 479 kts | 3° |
| 2026-04-22 23:09 | 24.64195 | 114.93859 | 35058 ft | 480 kts | 3° |
| 2026-04-22 23:09 | 24.70675 | 114.95473 | 35055 ft | 481 kts | 3° |
| 2026-04-22 23:10 | 24.77197 | 114.97095 | 35052 ft | 480 kts | 2° |
| 2026-04-22 23:10 | 24.83720 | 114.98690 | 35062 ft | 480 kts | 2° |
| 2026-04-22 23:11 | 24.90248 | 115.00277 | 35062 ft | 480 kts | 2° |
| 2026-04-22 23:11 | 24.96756 | 115.01865 | 35060 ft | 479 kts | 2° |
| 2026-04-22 23:12 | 25.03259 | 115.03456 | 35067 ft | 478 kts | 2° |
| 2026-04-22 23:12 | 25.09788 | 115.05057 | 35068 ft | 476 kts | 2° |
| 2026-04-22 23:13 | 25.16214 | 115.06633 | 35075 ft | 476 kts | 2° |
| 2026-04-22 23:13 | 25.22683 | 115.08219 | 35075 ft | 476 kts | 2° |
| 2026-04-22 23:14 | 25.29149 | 115.09808 | 35077 ft | 476 kts | 2° |
| 2026-04-22 23:14 | 25.35590 | 115.11841 | 35077 ft | 493 kts | 14° |
| 2026-04-22 23:15 | 25.38669 | 115.13622 | 35084 ft | 504 kts | 22° |
| 2026-04-22 23:15 | 25.41661 | 115.15667 | 35089 ft | 506 kts | 24° |
| 2026-04-22 23:15 | 25.47602 | 115.19891 | 35083 ft | 508 kts | 24° |
| 2026-04-22 23:16 | 25.53561 | 115.24102 | 35084 ft | 508 kts | 23° |
| 2026-04-22 23:16 | 25.59520 | 115.28241 | 35089 ft | 509 kts | 23° |
| 2026-04-22 23:17 | 25.65536 | 115.32394 | 35096 ft | 509 kts | 23° |
| 2026-04-22 23:17 | 25.71557 | 115.36554 | 35095 ft | 510 kts | 23° |
| 2026-04-22 23:18 | 25.77571 | 115.40720 | 35083 ft | 510 kts | 22° |
| 2026-04-22 23:18 | 25.83575 | 115.44886 | 35087 ft | 509 kts | 23° |
| 2026-04-22 23:19 | 25.89588 | 115.49063 | 35087 ft | 509 kts | 22° |
| 2026-04-22 23:19 | 25.95556 | 115.53213 | 35084 ft | 509 kts | 22° |
| 2026-04-22 23:20 | 26.01554 | 115.57390 | 35090 ft | 508 kts | 22° |
| 2026-04-22 23:20 | 26.07535 | 115.61559 | 35083 ft | 507 kts | 22° |
| 2026-04-22 23:21 | 26.13512 | 115.65731 | 35097 ft | 507 kts | 22° |
| 2026-04-22 23:21 | 26.19488 | 115.69906 | 35092 ft | 507 kts | 22° |
| 2026-04-22 23:22 | 26.25465 | 115.74087 | 35094 ft | 507 kts | 22° |
| 2026-04-22 23:22 | 26.31411 | 115.78252 | 35103 ft | 509 kts | 22° |
| 2026-04-22 23:23 | 26.37408 | 115.82457 | 35087 ft | 510 kts | 22° |
| 2026-04-22 23:23 | 26.43413 | 115.86675 | 35094 ft | 511 kts | 22° |
| 2026-04-22 23:24 | 26.49440 | 115.90914 | 35085 ft | 512 kts | 22° |
| 2026-04-22 23:24 | 26.55461 | 115.95156 | 35081 ft | 512 kts | 22° |
| 2026-04-22 23:25 | 26.61484 | 115.99400 | 35084 ft | 511 kts | 22° |
| 2026-04-22 23:25 | 26.67491 | 116.03640 | 35101 ft | 512 kts | 22° |
| 2026-04-22 23:26 | 26.73522 | 116.07901 | 35100 ft | 513 kts | 22° |
| 2026-04-22 23:26 | 26.79560 | 116.12175 | 35093 ft | 515 kts | 23° |
| 2026-04-22 23:27 | 26.85574 | 116.16439 | 35109 ft | 514 kts | 23° |
| 2026-04-22 23:27 | 26.91585 | 116.20836 | 35086 ft | 522 kts | 29° |
| 2026-04-22 23:28 | 26.96892 | 116.26567 | 35103 ft | 534 kts | 40° |
| 2026-04-22 23:28 | 27.01863 | 116.32772 | 35099 ft | 535 kts | 41° |
| 2026-04-22 23:29 | 27.06865 | 116.38937 | 35094 ft | 533 kts | 40° |
| 2026-04-22 23:29 | 27.11900 | 116.45027 | 35097 ft | 532 kts | 40° |
| 2026-04-22 23:30 | 27.16938 | 116.51113 | 35097 ft | 531 kts | 40° |
| 2026-04-22 23:30 | 27.21972 | 116.57205 | 35102 ft | 530 kts | 39° |
| 2026-04-22 23:31 | 27.27078 | 116.63168 | 35103 ft | 528 kts | 38° |
| 2026-04-22 23:31 | 27.32176 | 116.69051 | 35115 ft | 528 kts | 38° |
| 2026-04-22 23:32 | 27.37286 | 116.74991 | 35109 ft | 528 kts | 39° |
| 2026-04-22 23:32 | 27.42379 | 116.80945 | 35105 ft | 529 kts | 39° |
| 2026-04-22 23:33 | 27.47478 | 116.86916 | 35106 ft | 529 kts | 39° |
| 2026-04-22 23:33 | 27.52581 | 116.92893 | 35117 ft | 530 kts | 39° |
| 2026-04-22 23:34 | 27.57729 | 116.98854 | 35112 ft | 530 kts | 38° |
| 2026-04-22 23:34 | 27.62896 | 117.04805 | 35111 ft | 532 kts | 38° |
| 2026-04-22 23:35 | 27.68039 | 117.10744 | 35115 ft | 533 kts | 39° |
| 2026-04-22 23:35 | 27.73225 | 117.16751 | 35103 ft | 534 kts | 39° |
| 2026-04-22 23:36 | 27.78404 | 117.22773 | 35080 ft | 535 kts | 39° |
| 2026-04-22 23:36 | 27.83578 | 117.28792 | 35108 ft | 533 kts | 39° |
| 2026-04-22 23:37 | 27.88737 | 117.34794 | 35094 ft | 531 kts | 39° |
| 2026-04-22 23:37 | 27.93866 | 117.40780 | 35093 ft | 530 kts | 39° |
| 2026-04-22 23:38 | 27.98996 | 117.46774 | 35101 ft | 530 kts | 39° |
| 2026-04-22 23:38 | 28.04133 | 117.52781 | 35100 ft | 531 kts | 39° |
| 2026-04-22 23:39 | 28.09231 | 117.58753 | 35116 ft | 531 kts | 39° |
| 2026-04-22 23:39 | 28.14374 | 117.64787 | 35096 ft | 532 kts | 39° |
| 2026-04-22 23:40 | 28.19507 | 117.70817 | 35102 ft | 532 kts | 39° |
| 2026-04-22 23:40 | 28.24639 | 117.76856 | 35095 ft | 532 kts | 39° |
| 2026-04-22 23:41 | 28.29768 | 117.82901 | 35096 ft | 532 kts | 39° |
| 2026-04-22 23:41 | 28.34896 | 117.88953 | 35090 ft | 531 kts | 39° |
| 2026-04-22 23:42 | 28.40020 | 117.95009 | 35091 ft | 531 kts | 39° |
| 2026-04-22 23:42 | 28.45105 | 118.01099 | 35086 ft | 532 kts | 40° |
| 2026-04-22 23:43 | 28.50093 | 118.07253 | 35092 ft | 532 kts | 40° |
| 2026-04-22 23:43 | 28.55108 | 118.13469 | 35101 ft | 534 kts | 40° |
| 2026-04-22 23:44 | 28.59707 | 118.19156 | 35084 ft | 535 kts | 40° |
| 2026-04-22 23:44 | 28.63490 | 118.23828 | 35081 ft | 535 kts | 40° |
| 2026-04-22 23:45 | 28.68527 | 118.30056 | 35079 ft | 534 kts | 40° |
| 2026-04-22 23:45 | 28.74403 | 118.37332 | 35081 ft | 533 kts | 40° |
| 2026-04-22 23:46 | 28.78575 | 118.42506 | 35088 ft | 533 kts | 40° |
| 2026-04-22 23:46 | 28.83580 | 118.48729 | 35086 ft | 532 kts | 40° |
| 2026-04-22 23:47 | 28.88585 | 118.54955 | 35078 ft | 533 kts | 40° |
| 2026-04-22 23:47 | 28.93590 | 118.61186 | 35066 ft | 532 kts | 40° |
| 2026-04-22 23:48 | 28.98583 | 118.67416 | 35080 ft | 532 kts | 40° |
| 2026-04-22 23:48 | 29.03579 | 118.73661 | 35071 ft | 532 kts | 41° |
| 2026-04-22 23:49 | 29.08529 | 118.79857 | 35085 ft | 532 kts | 40° |
| 2026-04-22 23:49 | 29.13525 | 118.86120 | 35078 ft | 533 kts | 41° |
| 2026-04-22 23:50 | 29.18521 | 118.92390 | 35070 ft | 534 kts | 41° |
| 2026-04-22 23:50 | 29.23532 | 118.98695 | 35057 ft | 535 kts | 41° |
| 2026-04-22 23:51 | 29.28532 | 119.04997 | 35061 ft | 534 kts | 41° |
| 2026-04-22 23:51 | 29.33526 | 119.11299 | 35057 ft | 533 kts | 41° |
| 2026-04-22 23:52 | 29.38498 | 119.17580 | 35076 ft | 531 kts | 41° |
| 2026-04-22 23:52 | 29.43469 | 119.23863 | 35065 ft | 532 kts | 41° |
| 2026-04-22 23:53 | 29.48437 | 119.30157 | 35077 ft | 532 kts | 41° |
| 2026-04-22 23:53 | 29.53402 | 119.36456 | 35061 ft | 532 kts | 41° |
| 2026-04-22 23:54 | 29.58357 | 119.42780 | 35067 ft | 532 kts | 41° |
| 2026-04-22 23:54 | 29.63262 | 119.49077 | 35075 ft | 531 kts | 41° |
| 2026-04-22 23:55 | 29.68171 | 119.55429 | 35084 ft | 532 kts | 41° |
| 2026-04-22 23:55 | 29.73086 | 119.61818 | 35079 ft | 533 kts | 41° |
| 2026-04-22 23:56 | 29.78433 | 119.67542 | 35081 ft | 515 kts | 25° |
| 2026-04-22 23:56 | 29.84519 | 119.71690 | 35082 ft | 507 kts | 19° |
| 2026-04-22 23:57 | 29.90660 | 119.75690 | 35102 ft | 506 kts | 20° |
| 2026-04-22 23:57 | 29.96773 | 119.79752 | 35084 ft | 507 kts | 20° |
| 2026-04-22 23:58 | 30.02869 | 119.83859 | 35078 ft | 509 kts | 21° |
| 2026-04-22 23:58 | 30.08950 | 119.87973 | 35096 ft | 510 kts | 21° |
| 2026-04-22 23:59 | 30.15083 | 119.92124 | 35101 ft | 511 kts | 21° |
| 2026-04-22 23:59 | 30.21222 | 119.96283 | 35084 ft | 511 kts | 22° |
| 2026-04-23 00:00 | 30.30421 | 120.02526 | 35081 ft | 510 kts | 22° |
| 2026-04-23 00:00 | 30.33494 | 120.04613 | 34648 ft | 515 kts | 22° |
| 2026-04-23 00:01 | 30.36585 | 120.06714 | 34066 ft | 514 kts | 23° |
| 2026-04-23 00:01 | 30.39663 | 120.08811 | 33390 ft | 514 kts | 23° |
| 2026-04-23 00:01 | 30.42814 | 120.10688 | 32745 ft | 500 kts | 11° |
| 2026-04-23 00:01 | 30.46118 | 120.11506 | 32331 ft | 476 kts | 355° |
| 2026-04-23 00:02 | 30.49349 | 120.11349 | 31854 ft | 456 kts | 343° |
| 2026-04-23 00:02 | 30.52343 | 120.10508 | 31321 ft | 442 kts | 333° |
| 2026-04-23 00:02 | 30.55078 | 120.09042 | 30826 ft | 425 kts | 321° |
| 2026-04-23 00:02 | 30.57454 | 120.07082 | 30378 ft | 416 kts | 317° |
| 2026-04-23 00:03 | 30.59765 | 120.05084 | 29856 ft | 412 kts | 317° |
| 2026-04-23 00:03 | 30.62050 | 120.03099 | 29334 ft | 408 kts | 317° |
| 2026-04-23 00:03 | 30.64309 | 120.01143 | 28835 ft | 403 kts | 317° |
| 2026-04-23 00:03 | 30.66554 | 119.99208 | 28338 ft | 399 kts | 317° |
| 2026-04-23 00:04 | 30.68773 | 119.97302 | 27886 ft | 394 kts | 317° |
| 2026-04-23 00:04 | 30.70969 | 119.95420 | 27427 ft | 390 kts | 317° |
| 2026-04-23 00:04 | 30.73146 | 119.93556 | 26972 ft | 387 kts | 317° |
| 2026-04-23 00:04 | 30.75304 | 119.91710 | 26520 ft | 384 kts | 317° |
| 2026-04-23 00:05 | 30.77449 | 119.89873 | 26074 ft | 381 kts | 317° |
| 2026-04-23 00:05 | 30.79580 | 119.88048 | 25619 ft | 379 kts | 318° |
| 2026-04-23 00:05 | 30.81697 | 119.86234 | 25170 ft | 376 kts | 318° |
| 2026-04-23 00:05 | 30.83802 | 119.84431 | 24713 ft | 374 kts | 318° |
| 2026-04-23 00:06 | 30.85893 | 119.82637 | 24271 ft | 373 kts | 318° |
| 2026-04-23 00:06 | 30.87974 | 119.80851 | 23824 ft | 371 kts | 318° |
| 2026-04-23 00:06 | 30.90051 | 119.79067 | 23334 ft | 370 kts | 319° |
| 2026-04-23 00:06 | 30.92092 | 119.77314 | 22866 ft | 368 kts | 319° |
| 2026-04-23 00:07 | 30.94141 | 119.75554 | 22414 ft | 364 kts | 319° |
| 2026-04-23 00:07 | 30.96194 | 119.73789 | 21969 ft | 361 kts | 319° |
| 2026-04-23 00:07 | 30.98210 | 119.72056 | 21553 ft | 358 kts | 319° |
| 2026-04-23 00:07 | 31.00175 | 119.70364 | 21145 ft | 356 kts | 319° |
| 2026-04-23 00:08 | 31.02161 | 119.68653 | 20713 ft | 354 kts | 319° |
| 2026-04-23 00:08 | 31.04141 | 119.66946 | 20295 ft | 353 kts | 319° |
| 2026-04-23 00:08 | 31.06112 | 119.65247 | 19895 ft | 351 kts | 319° |
| 2026-04-23 00:08 | 31.08078 | 119.63551 | 19473 ft | 351 kts | 319° |
| 2026-04-23 00:09 | 31.10036 | 119.61861 | 19074 ft | 350 kts | 319° |
| 2026-04-23 00:09 | 31.11994 | 119.60170 | 18628 ft | 350 kts | 319° |
| 2026-04-23 00:09 | 31.13944 | 119.58484 | 18212 ft | 348 kts | 319° |
| 2026-04-23 00:09 | 31.15892 | 119.56801 | 17750 ft | 347 kts | 320° |
| 2026-04-23 00:10 | 31.17819 | 119.55135 | 17334 ft | 344 kts | 320° |
| 2026-04-23 00:10 | 31.19737 | 119.53475 | 16912 ft | 343 kts | 320° |
| 2026-04-23 00:10 | 31.21648 | 119.51821 | 16512 ft | 341 kts | 320° |
| 2026-04-23 00:10 | 31.23556 | 119.50168 | 16102 ft | 340 kts | 320° |
| 2026-04-23 00:11 | 31.25444 | 119.48532 | 15703 ft | 337 kts | 321° |
| 2026-04-23 00:11 | 31.27324 | 119.46903 | 15312 ft | 335 kts | 321° |
| 2026-04-23 00:11 | 31.29184 | 119.45288 | 14920 ft | 333 kts | 321° |
| 2026-04-23 00:11 | 31.31037 | 119.43680 | 14525 ft | 331 kts | 321° |
| 2026-04-23 00:12 | 31.32860 | 119.42096 | 14120 ft | 330 kts | 321° |
| 2026-04-23 00:12 | 31.34699 | 119.40499 | 13724 ft | 329 kts | 322° |
| 2026-04-23 00:12 | 31.36531 | 119.38906 | 13298 ft | 328 kts | 322° |
| 2026-04-23 00:12 | 31.38360 | 119.37315 | 12884 ft | 327 kts | 322° |
| 2026-04-23 00:13 | 31.40179 | 119.35733 | 12483 ft | 325 kts | 322° |
| 2026-04-23 00:13 | 31.41991 | 119.34156 | 12081 ft | 324 kts | 322° |
| 2026-04-23 00:13 | 31.43796 | 119.32583 | 11679 ft | 322 kts | 322° |
| 2026-04-23 00:13 | 31.45588 | 119.31021 | 11297 ft | 320 kts | 322° |
| 2026-04-23 00:14 | 31.47372 | 119.29466 | 10940 ft | 319 kts | 322° |
| 2026-04-23 00:14 | 31.49159 | 119.27906 | 10538 ft | 321 kts | 322° |
| 2026-04-23 00:14 | 31.50924 | 119.26367 | 10396 ft | 313 kts | 322° |
| 2026-04-23 00:14 | 31.52656 | 119.24855 | 10238 ft | 306 kts | 322° |
| 2026-04-23 00:15 | 31.54339 | 119.23386 | 10100 ft | 297 kts | 322° |
| 2026-04-23 00:15 | 31.55856 | 119.21815 | 9973 ft | 286 kts | 305° |
| 2026-04-23 00:15 | 31.56862 | 119.19879 | 9859 ft | 276 kts | 299° |
| 2026-04-23 00:15 | 31.57806 | 119.17918 | 9531 ft | 274 kts | 299° |
| 2026-04-23 00:16 | 31.58739 | 119.15973 | 9235 ft | 272 kts | 299° |
| 2026-04-23 00:16 | 31.59665 | 119.14047 | 8934 ft | 271 kts | 299° |
| 2026-04-23 00:16 | 31.60576 | 119.12158 | 8646 ft | 269 kts | 300° |
| 2026-04-23 00:16 | 31.61492 | 119.10263 | 8363 ft | 267 kts | 300° |
| 2026-04-23 00:17 | 31.62409 | 119.08370 | 8081 ft | 264 kts | 300° |
| 2026-04-23 00:17 | 31.63317 | 119.06498 | 7822 ft | 263 kts | 301° |
| 2026-04-23 00:17 | 31.64214 | 119.04649 | 7667 ft | 258 kts | 301° |
| 2026-04-23 00:17 | 31.65093 | 119.02836 | 7514 ft | 253 kts | 301° |
| 2026-04-23 00:18 | 31.65947 | 119.01074 | 7413 ft | 244 kts | 301° |
| 2026-04-23 00:18 | 31.66770 | 118.99373 | 7303 ft | 236 kts | 301° |
| 2026-04-23 00:18 | 31.67441 | 118.97663 | 7183 ft | 229 kts | 281° |
| 2026-04-23 00:18 | 31.67344 | 118.95810 | 7025 ft | 232 kts | 252° |
| 2026-04-23 00:19 | 31.66627 | 118.94089 | 6824 ft | 236 kts | 240° |
| 2026-04-23 00:19 | 31.65744 | 118.92443 | 6518 ft | 241 kts | 238° |
| 2026-04-23 00:19 | 31.64835 | 118.90798 | 6294 ft | 240 kts | 238° |
| 2026-04-23 00:19 | 31.63935 | 118.89162 | 6028 ft | 236 kts | 238° |
| 2026-04-23 00:20 | 31.63057 | 118.87553 | 5751 ft | 231 kts | 238° |
| 2026-04-23 00:20 | 31.62207 | 118.85984 | 5515 ft | 224 kts | 239° |
| 2026-04-23 00:20 | 31.61391 | 118.84470 | 5321 ft | 215 kts | 239° |
| 2026-04-23 00:20 | 31.60610 | 118.83018 | 5101 ft | 206 kts | 239° |
| 2026-04-23 00:21 | 31.59865 | 118.81629 | 4918 ft | 197 kts | 239° |
| 2026-04-23 00:21 | 31.59147 | 118.80291 | 4714 ft | 191 kts | 239° |
| 2026-04-23 00:21 | 31.58444 | 118.78981 | 4545 ft | 189 kts | 239° |
| 2026-04-23 00:21 | 31.57754 | 118.77696 | 4351 ft | 187 kts | 239° |
| 2026-04-23 00:22 | 31.57077 | 118.76378 | 4149 ft | 186 kts | 248° |
| 2026-04-23 00:22 | 31.56995 | 118.74926 | 3953 ft | 181 kts | 291° |
| 2026-04-23 00:22 | 31.57733 | 118.73781 | 3786 ft | 178 kts | 327° |
| 2026-04-23 00:22 | 31.58782 | 118.73007 | 3614 ft | 180 kts | 330° |
| 2026-04-23 00:23 | 31.59853 | 118.72222 | 3401 ft | 183 kts | 330° |
| 2026-04-23 00:23 | 31.60939 | 118.71425 | 3199 ft | 184 kts | 330° |
| 2026-04-23 00:23 | 31.62027 | 118.70639 | 2996 ft | 182 kts | 335° |
| 2026-04-23 00:23 | 31.63229 | 118.70451 | 2757 ft | 173 kts | 21° |
| 2026-04-23 00:24 | 31.64088 | 118.71285 | 2609 ft | 155 kts | 58° |
| 2026-04-23 00:24 | 31.64641 | 118.72315 | 2485 ft | 144 kts | 57° |
| 2026-04-23 00:24 | 31.65214 | 118.73296 | 2369 ft | 147 kts | 57° |
| 2026-04-23 00:24 | 31.65765 | 118.74296 | 2168 ft | 146 kts | 58° |
| 2026-04-23 00:25 | 31.66298 | 118.75290 | 1971 ft | 142 kts | 58° |
| 2026-04-23 00:25 | 31.66818 | 118.76268 | 1780 ft | 140 kts | 58° |
| 2026-04-23 00:25 | 31.67326 | 118.77225 | 1601 ft | 141 kts | 59° |
| 2026-04-23 00:25 | 31.67848 | 118.78212 | 1401 ft | 143 kts | 59° |
| 2026-04-23 00:26 | 31.68375 | 118.79204 | 1187 ft | 144 kts | 58° |
| 2026-04-23 00:26 | 31.68907 | 118.80206 | 1002 ft | 145 kts | 58° |
| 2026-04-23 00:26 | 31.69197 | 118.80752 | 893 ft | 145 kts | 58° |
| 2026-04-23 00:30 | 31.69335 | 118.81012 | 839 ft | 146 kts | 57° |
| 2026-04-23 00:31 | 31.69869 | 118.82019 | 649 ft | 145 kts | 57° |
| 2026-04-23 00:31 | 31.70405 | 118.83031 | 431 ft | 146 kts | 58° |
| 2026-04-23 00:31 | 31.70936 | 118.84053 | 267 ft | 148 kts | 56° |
| 2026-04-23 00:31 | 31.71481 | 118.85060 | 70 ft | 146 kts | 57° |
| 2026-04-23 00:32 | 31.71963 | 118.85959 | 54 ft | 104 kts | 58° |
| 2026-04-23 00:32 | 31.72235 | 118.86469 | 53 ft | 43 kts | 58° |
| 2026-04-23 00:32 | 31.72407 | 118.86670 | 56 ft | 24 kts | 28° |
| 2026-04-23 00:32 | 31.72504 | 118.86736 | 55 ft | 14 kts | 30° |
| 2026-04-23 00:33 | 31.72584 | 118.86792 | 51 ft | 13 kts | 31° |
| 2026-04-23 00:33 | 31.72647 | 118.86863 | 53 ft | 12 kts | 59° |
| 2026-04-23 00:33 | 31.72690 | 118.86941 | 55 ft | 11 kts | 57° |
| 2026-04-23 00:33 | 31.72730 | 118.87016 | 57 ft | 11 kts | 57° |
| 2026-04-23 00:34 | 31.72770 | 118.87090 | 55 ft | 10 kts | 58° |
| 2026-04-23 00:34 | 31.72808 | 118.87161 | 55 ft | 10 kts | 58° |
| 2026-04-23 00:34 | 31.72845 | 118.87231 | 53 ft | 10 kts | 58° |
| 2026-04-23 00:34 | 31.72881 | 118.87299 | 53 ft | 10 kts | 58° |
| 2026-04-23 00:35 | 31.72916 | 118.87365 | 55 ft | 9 kts | 57° |
| 2026-04-23 00:35 | 31.72953 | 118.87431 | 55 ft | 11 kts | 58° |
| 2026-04-23 00:35 | 31.72998 | 118.87517 | 52 ft | 14 kts | 58° |
| 2026-04-23 00:35 | 31.73056 | 118.87625 | 54 ft | 17 kts | 58° |
| 2026-04-23 00:36 | 31.73120 | 118.87745 | 54 ft | 16 kts | 58° |
| 2026-04-23 00:36 | 31.73164 | 118.87809 | 53 ft | 4 kts | 26° |
| 2026-04-23 00:36 | 31.73192 | 118.87806 | 55 ft | 4 kts | 335° |
| 2026-04-23 00:36 | 31.73224 | 118.87783 | 56 ft | 7 kts | 328° |
| 2026-04-23 00:37 | 31.73264 | 118.87754 | 55 ft | 7 kts | 328° |
| 2026-04-23 00:37 | 31.73287 | 118.87717 | 56 ft | 4 kts | 286° |
| 2026-04-23 00:37 | 31.73290 | 118.87683 | 57 ft | 4 kts | 277° |
| 2026-04-23 00:37 | 31.73304 | 118.87654 | 56 ft | 4 kts | 318° |
| 2026-04-23 00:38 | 31.73327 | 118.87636 | 51 ft | 4 kts | 327° |
| 2026-04-23 00:38 | 31.73350 | 118.87619 | 54 ft | 3 kts | 328° |
| 2026-04-23 00:38 | 31.73363 | 118.87610 | 54 ft | 2 kts | 328° |
| 2026-04-23 00:38 | 31.73364 | 118.87608 | 55 ft | 0 kts | 328° |